Главная страница
METAR-TAF:

METAR-TAF

Аэропорты :

Рота, Марианские острова, США

широта: 14-11N, долгота: 145-15E, высота над уровнем моря: 185 м

Текущие метеонаблюдения

Эта сводка был подготовлена 34 минут назад, в 03:50 UTC
Ветер 16 Узел от восточный
Температура 30°C
Влажность 75%
Давление 1011 hPa
Видимость: 11.3 км
Отдельные облака на высоте 1600 фута
Рассеянная облачность на высоте 8000 фута

METAR: PGRO 240350Z 09016KT 7SM SCT016 BKN080 30/25 A2984

Время: 14:24 (04:24 UTC)

Прогноз

Эта сводка был подготовлена 1 час и 36 минут назад, в 02:48 UTC
Прогноз действительный с 24-го 03 UTC до 24-го 24 UTC
Ветер 15 Узел от восточный
Видимость: 10 км
Отдельные облака на высоте 1500 фута
Отдельные облака на высоте 8000 фута
ливни в окрестностях
временами
С 24-го 03 UTC до 24-го 07 UTC
Видимость: 9.7 км
Рассеянная облачность на высоте 1400 фута
ливневые дожди,

TAF: PGRO 240248Z 2403/2424 09015KT P6SM VCSH SCT015 SCT080 TEMPO 2403/2407 6SM SHRA BKN014

Метеонаблюдения и прогнозы для более 4000 аэропортов (сводки METAR и TAF).

Имеющиеся станции представлены на карте желтыми и красными точками.

Чтобы увидеть название станции, наведите на нее мышь.

Затем щелкните, чтобы увидеть метеонаблюдения и метеопрогнозы.

Управление картой: чтобы увеличить масштаб, щелкните зеленые кнопки с черным крестиком; чтобы уменьшить масштаб, щелкните зеленую кнопку с тире; для просмотра соседних карт щелкайте зеленые стрелки.


METAR-TAF: